Latest Weather Observations for Narrabri

IDN60801

Issued at 9:32 am EDT Tuesday 24 October 2017 (issued every 30 minutes, with the page automatically refreshed every 10 minutes)

About weather observations | Map of weather stations | Latest weather observations for NSW | Other Formats
Station Details ID: 054038 Name: NARRABRI AIRPORT AWS Lat: -30.32 Lon: 149.83 Height: 229.02 m
Data from the previous 72 hours. | See also: Recent months at Narrabri
Date/Time
EDT
Temp
°C
App
Temp
°C
Dew
Point
°C
Rel
Hum
%
Delta-T
°C
Wind Press
QNH
hPa
Press
MSL
hPa
Rain since
9am
mm
Dir  Spd
km/h
Gust
km/h
Spd
kts
Gust
kts
24/09:30am 21.5 16.7 7.3 40 7.4 N 22 30 12 16 1020.9 1020.1 0.0
24/09:00am 21.1 15.8 8.4 44 6.7 N 26 33 14 18 1020.9 1020.1 0.0
24/08:30am 19.3 18.2 10.0 55 5.0 N 6 22 3 12 1020.6 1019.9 0.0
24/08:00am 16.2 16.4 10.7 70 3.0 CALM 0 0 0 0 1020.4 1019.7 0.0
24/07:30am 12.5 12.3 9.1 80 1.7 CALM 0 0 0 0 1020.3 1019.6 0.0
24/07:00am 10.1 9.6 7.9 86 1.1 CALM 0 0 0 0 1019.9 1019.2 0.0
24/06:30am 8.4 7.1 6.2 86 1.0 S 2 6 1 3 1019.7 1019.0 0.0
24/06:00am 8.4 7.1 5.9 84 1.1 ESE 2 7 1 4 1019.3 1018.6 0.0
24/05:30am 9.3 6.8 6.6 83 1.3 S 9 11 5 6 1019.2 1018.5 0.0
24/05:00am 10.2 9.2 7.3 82 1.4 ESE 2 7 1 4 1018.8 1018.1 0.0
24/04:30am 10.0 7.7 7.4 84 1.3 E 9 13 5 7 1018.6 1017.9 0.0
24/04:00am 9.5 7.5 7.1 85 1.1 ENE 7 9 4 5 1018.5 1017.8 0.0
24/03:30am 9.8 8.4 7.2 84 1.2 NE 4 9 2 5 1018.4 1017.7 0.0
24/03:00am 9.9 8.5 7.2 83 1.3 NE 4 7 2 4 1018.5 1017.8 0.0
24/02:30am 10.5 8.2 7.6 82 1.4 NE 9 11 5 6 1018.4 1017.7 0.0
24/02:00am 10.3 9.7 7.2 81 1.5 CALM 0 0 0 0 1018.7 1018.0 0.0
24/01:30am 10.9 10.3 7.2 78 1.8 CALM 0 0 0 0 1018.4 1017.7 0.0
24/01:00am 11.8 9.8 7.1 73 2.3 SSE 7 9 4 5 1018.5 1017.8 0.0
24/12:30am 12.3 10.3 7.2 71 2.5 ENE 7 11 4 6 1018.4 1017.7 0.0
24/12:00am 12.6 11.5 7.1 69 2.7 SE 2 6 1 3 1018.2 1017.5 0.0
 
Date/Time
EDT
Temp
°C
App
Temp
°C
Dew
Point
°C
Rel
Hum
%
Delta-T
°C
Wind Press
QNH
hPa
Press
MSL
hPa
Rain since
9am
mm
Dir  Spd
km/h
Gust
km/h
Spd
kts
Gust
kts
23/11:30pm 13.0 11.1 6.8 66 3.0 SW 6 9 3 5 1017.9 1017.2 0.0
23/11:00pm 13.8 11.8 6.4 61 3.6 S 6 9 3 5 1017.6 1016.9 0.0
23/10:30pm 14.4 11.5 6.7 60 3.8 NE 11 13 6 7 1017.2 1016.4 0.0
23/10:00pm 15.1 11.8 6.4 56 4.3 ENE 13 15 7 8 1017.1 1016.3 0.0
23/09:30pm 17.5 13.7 5.8 46 5.8 E 15 20 8 11 1016.8 1016.0 0.0
23/09:00pm 15.3 13.0 5.8 53 4.6 NNE 7 11 4 6 1016.6 1015.8 0.0
23/08:30pm 19.0 15.7 4.4 38 7.1 ESE 11 17 6 9 1015.9 1015.2 0.0
23/08:00pm 18.1 15.3 5.0 42 6.4 S 9 11 5 6 1015.5 1014.8 0.0
23/07:30pm 20.3 17.7 4.4 35 7.8 SE 7 9 4 5 1015.2 1014.5 0.0
23/07:00pm 21.7 18.3 3.9 31 8.7 ESE 11 17 6 9 1014.8 1014.1 0.0
23/06:30pm 23.4 19.7 4.4 29 9.5 ESE 13 19 7 10 1014.2 1013.5 0.0
23/06:00pm 24.2 19.8 2.9 25 10.4 ESE 15 22 8 12 1013.8 1013.1 0.0
23/05:30pm 23.6 19.2 4.5 29 9.6 ESE 17 24 9 13 1013.6 1012.8 0.0
23/05:00pm 22.1 16.4 4.7 32 8.7 ESE 24 35 13 19 1013.5 1012.7 0.0
23/04:56pm 22.2 16.8 4.3 31 8.8 SE 22 35 12 19 1013.5 1012.7 0.0
23/04:30pm 23.7 20.1 3.1 26 10.1 ESE 11 15 6 8 1013.1 1012.3 0.0
23/04:00pm 24.0 18.8 3.3 26 10.2 ESE 20 30 11 16 1013.2 1012.4 0.0
23/03:30pm 24.4 21.0 1.9 23 10.8 SE 9 13 5 7 1013.1 1012.3 0.0
23/03:00pm 25.5 22.5 2.2 22 11.3 SSE 7 13 4 7 1013.1 1012.3 0.0
23/02:30pm 25.1 21.0 2.5 23 11.0 SW 13 22 7 12 1013.3 1012.5 0.0
23/02:00pm 24.9 21.2 4.6 27 10.3 S 13 24 7 13 1013.7 1013.0 0.0
23/01:30pm 23.9 21.1 3.2 26 10.1 SSW 7 13 4 7 1014.1 1013.4 0.0
23/01:00pm 24.7 22.0 3.9 26 10.4 WNW 7 11 4 6 1014.3 1013.6 0.0
23/12:30pm 23.9 20.7 3.2 26 10.1 ENE 9 17 5 9 1014.6 1013.9 0.0
23/12:00pm 23.4 20.6 3.4 27 9.8 SE 7 11 4 6 1014.9 1014.2 0.0
23/11:30am 22.6 20.1 4.6 31 9.0 SSW 7 11 4 6 1015.2 1014.5 0.0
23/11:00am 21.6 19.2 5.1 34 8.2 WSW 7 11 4 6 1015.3 1014.6 0.0
23/10:30am 21.3 18.8 4.8 34 8.2 NNE 7 13 4 7 1015.5 1014.8 0.0
23/10:00am 19.9 16.6 7.9 46 6.3 SSE 15 24 8 13 1015.5 1014.8 0.0
23/09:30am 18.3 14.7 8.3 52 5.2 SSE 17 22 9 12 1015.3 1014.6 0.0
23/09:00am 16.6 13.3 8.1 57 4.4 SSE 15 24 8 13 1015.2 1014.5 0.0
23/08:30am 15.4 12.6 10.0 70 2.9 SSE 15 20 8 11 1014.9 1014.2 0.0
23/08:00am 14.1 10.7 9.1 72 2.6 SE 17 26 9 14 1014.7 1014.0 0.0
23/07:30am 12.9 10.0 8.2 73 2.4 SSE 13 20 7 11 1014.6 1013.9 0.0
23/07:00am 10.1 8.0 6.6 79 1.7 SSE 7 9 4 5 1014.4 1013.7 0.0
23/06:30am 7.7 6.6 5.3 85 1.1 CALM 0 0 0 0 1014.2 1013.5 0.0
23/06:00am 7.7 6.6 5.2 84 1.1 CALM 0 0 0 0 1013.9 1013.2 0.0
23/05:30am 7.9 6.8 5.2 83 1.2 CALM 0 0 0 0 1013.6 1012.8 0.0
23/05:00am 8.2 7.1 5.3 82 1.3 CALM 0 6 0 3 1013.2 1012.4 0.0
23/04:30am 8.6 7.5 5.2 79 1.5 CALM 0 0 0 0 1013.2 1012.4 0.0
23/04:00am 8.7 7.6 5.3 79 1.5 CALM 0 0 0 0 1013.2 1012.4 0.0
23/03:30am 9.5 7.1 5.3 75 1.9 E 7 9 4 5 1013.2 1012.4 0.0
23/03:00am 9.6 8.5 5.2 74 2.0 CALM 0 0 0 0 1013.3 1012.5 0.0
23/02:30am 10.2 9.2 5.4 72 2.2 CALM 0 0 0 0 1013.6 1012.8 0.0
23/02:00am 10.9 8.7 5.4 69 2.6 SE 6 7 3 4 1013.7 1013.0 0.0
23/01:30am 11.5 10.2 6.0 69 2.6 ESE 2 7 1 4 1014.0 1013.3 0.0
23/01:00am 11.4 10.6 6.3 71 2.4 CALM 0 0 0 0 1014.2 1013.5 0.0
23/12:30am 12.7 11.7 5.4 61 3.4 CALM 0 0 0 0 1014.3 1013.6 0.0
23/12:00am 14.8 11.9 4.8 51 4.7 SSE 9 11 5 6 1014.5 1013.8 0.0
 
Date/Time
EDT
Temp
°C
App
Temp
°C
Dew
Point
°C
Rel
Hum
%
Delta-T
°C
Wind Press
QNH
hPa
Press
MSL
hPa
Rain since
9am
mm
Dir  Spd
km/h
Gust
km/h
Spd
kts
Gust
kts
22/11:30pm 13.7 11.3 5.1 56 4.1 ESE 7 9 4 5 1014.4 1013.7 0.0
22/11:00pm 14.2 12.1 5.6 56 4.1 S 6 7 3 4 1014.1 1013.4 0.0
22/10:30pm 14.6 13.7 5.9 56 4.2 CALM 0 6 0 3 1013.9 1013.2 0.0
22/10:00pm 15.1 14.2 5.9 54 4.5 CALM 0 0 0 0 1013.7 1013.0 0.0
22/09:30pm 15.9 14.1 7.1 56 4.4 SW 6 7 3 4 1013.4 1012.6 0.0
22/09:00pm 17.0 14.7 5.6 47 5.6 SW 7 9 4 5 1013.1 1012.3 0.0
22/08:30pm 18.8 15.9 6.3 44 6.3 SW 11 13 6 7 1012.8 1012.0 0.0
22/08:00pm 19.2 16.3 6.3 43 6.5 SW 11 13 6 7 1012.3 1011.5 0.0
22/07:30pm 20.3 16.5 5.9 39 7.2 SW 15 17 8 9 1012.0 1011.2 0.0
22/07:00pm 21.9 18.4 5.3 34 8.4 WSW 13 15 7 8 1011.5 1010.8 0.0
22/06:30pm 23.3 20.1 5.2 31 9.2 SW 11 15 6 8 1011.2 1010.5 0.0
22/06:00pm 24.0 19.4 5.8 31 9.4 W 19 24 10 13 1010.9 1010.2 0.0
22/05:30pm 23.7 21.3 6.9 34 8.8 WSW 9 13 5 7 1010.9 1010.2 0.0
22/05:00pm 23.5 19.0 4.0 28 9.7 WSW 17 22 9 12 1010.8 1010.1 0.0
22/04:30pm 25.3 21.5 6.0 29 10.0 WSW 15 30 8 16 1010.7 1010.0 0.0
22/04:00pm 24.8 20.8 6.5 31 9.6 SW 17 28 9 15 1011.0 1010.3 0.0
22/03:30pm 24.0 20.6 5.8 31 9.4 SW 13 22 7 12 1011.3 1010.6 0.0
22/03:00pm 23.9 20.7 6.7 33 9.0 W 13 24 7 13 1011.7 1010.9 0.0
22/02:30pm 23.9 20.7 5.3 30 9.5 W 11 19 6 10 1012.0 1011.2 0.0
22/02:00pm 23.6 20.6 6.0 32 9.1 W 11 20 6 11 1012.4 1011.6 0.0
22/01:30pm 23.0 19.8 6.7 35 8.5 WNW 13 22 7 12 1013.1 1012.3 0.0
22/01:00pm 23.0 20.6 8.7 40 7.7 WSW 11 20 6 11 1013.4 1012.6 0.0
22/12:30pm 22.1 19.9 7.9 40 7.5 SW 9 17 5 9 1013.8 1013.1 0.0
22/12:00pm 21.6 19.6 8.8 44 6.9 WSW 9 15 5 8 1014.2 1013.5 0.0
22/11:30am 20.5 17.8 7.5 43 6.8 WSW 11 17 6 9 1014.6 1013.9 0.0
22/11:00am 21.0 18.4 7.6 42 7.0 SW 11 17 6 9 1014.9 1014.2 0.0
22/10:30am 19.7 18.1 8.1 47 6.1 SSW 6 11 3 6 1015.1 1014.4 0.0
22/10:00am 19.1 17.6 9.3 53 5.2 NW 7 11 4 6 1015.2 1014.5 0.0
22/09:30am 17.7 16.2 9.3 58 4.4 SW 7 13 4 7 1015.2 1014.5 0.0
22/09:00am 16.0 14.7 9.2 64 3.5 SSW 6 7 3 4 1015.1 1014.4 0.0
22/08:30am 14.5 13.8 8.7 68 3.0 SW 2 7 1 4 1015.0 1014.3 0.0
22/08:00am 13.5 13.2 8.6 72 2.5 CALM 0 0 0 0 1014.8 1014.1 0.0
22/07:30am 12.5 11.9 8.8 78 1.9 SE 2 7 1 4 1014.5 1013.8 0.0
22/07:00am 10.6 10.3 8.7 88 0.9 CALM 0 6 0 3 1014.4 1013.7 0.0
22/06:30am 9.8 9.2 7.6 86 1.1 CALM 0 2 0 1 1014.2 1013.5 0.0
22/06:00am 9.3 8.6 7.1 86 1.0 CALM 0 6 0 3 1014.0 1013.3 0.0
22/05:30am 9.5 8.1 7.3 86 1.1 SE 4 7 2 4 1013.9 1013.2 0.0
22/05:00am 9.7 8.7 7.5 86 1.1 SSE 2 6 1 3 1013.9 1013.2 0.0
22/04:30am 9.8 8.9 7.6 86 1.1 SSE 2 6 1 3 1013.9 1013.2 0.0
22/04:00am 10.1 9.6 8.0 87 1.0 CALM 0 0 0 0 1014.0 1013.3 0.0
22/03:30am 10.5 10.1 8.3 86 1.1 CALM 0 0 0 0 1014.1 1013.4 0.0
22/03:00am 10.4 8.6 8.0 85 1.2 NE 7 9 4 5 1014.3 1013.6 0.0
22/02:30am 11.4 10.3 8.6 83 1.4 ENE 4 9 2 5 1014.6 1013.9 0.0
22/02:00am 11.8 10.7 8.3 79 1.7 E 4 6 2 3 1014.8 1014.1 0.0
22/01:30am 12.3 10.8 8.4 77 2.0 SE 6 9 3 5 1014.9 1014.2 0.0
22/01:00am 12.6 12.3 8.5 76 2.1 CALM 0 6 0 3 1015.1 1014.4 0.0
22/12:30am 13.0 11.1 8.9 76 2.1 S 9 11 5 6 1015.3 1014.6 0.0
22/12:00am 13.3 11.3 8.6 73 2.4 S 9 11 5 6 1015.3 1014.6 0.0
 
Date/Time
EDT
Temp
°C
App
Temp
°C
Dew
Point
°C
Rel
Hum
%
Delta-T
°C
Wind Press
QNH
hPa
Press
MSL
hPa
Rain since
9am
mm
Dir  Spd
km/h
Gust
km/h
Spd
kts
Gust
kts
21/11:30pm 14.0 12.0 8.6 70 2.7 SSE 9 13 5 7 1015.3 1014.6 0.0
21/11:00pm 15.1 12.2 8.1 63 3.5 SE 13 19 7 10 1015.5 1014.8 0.0
21/10:30pm 15.7 12.5 8.4 62 3.7 SE 15 20 8 11 1015.6 1014.9 0.0
21/10:00pm 16.4 13.2 8.4 59 4.1 SSE 15 22 8 12 1015.9 1015.2 0.0
21/09:30pm 17.0 13.5 8.7 58 4.3 SE 17 24 9 13 1015.9 1015.2 0.0
21/09:00pm 17.6 14.2 9.0 57 4.5 SE 17 22 9 12 1015.7 1015.0 0.0
21/08:30pm 18.2 15.6 9.3 56 4.7 SE 13 20 7 11 1015.6 1014.9 0.0
21/08:00pm 18.9 16.2 9.1 53 5.2 SSE 13 17 7 9 1015.2 1014.5 0.0
21/07:30pm 19.6 17.4 9.2 51 5.5 SE 11 17 6 9 1015.0 1014.3 0.0
21/07:00pm 20.7 18.0 9.0 47 6.3 SSE 13 17 7 9 1014.8 1014.1 0.0
21/06:30pm 21.9 18.5 9.1 44 6.9 SSE 17 24 9 13 1014.5 1013.8 0.0
21/06:00pm 22.4 18.7 9.6 44 7.0 S 19 26 10 14 1014.2 1013.5 0.0
21/05:30pm 22.6 17.8 8.7 41 7.5 S 24 33 13 18 1014.2 1013.5 0.0
21/05:00pm 22.9 18.5 9.0 41 7.5 S 22 33 12 18 1014.3 1013.6 0.0
21/04:30pm 23.0 18.2 9.0 41 7.6 SSE 24 32 13 17 1014.4 1013.7 0.0
21/04:00pm 22.9 17.8 9.3 42 7.4 SSE 26 35 14 19 1014.6 1013.9 0.0
21/03:30pm 23.4 18.7 9.4 41 7.7 SSE 24 41 13 22 1014.8 1014.1 0.0
21/03:00pm 23.6 19.1 9.9 42 7.6 SSE 24 33 13 18 1015.0 1014.3 0.0
21/02:30pm 23.4 19.9 10.8 45 7.1 SSE 20 33 11 18 1015.4 1014.7 0.0
21/02:00pm 22.6 18.9 11.4 49 6.3 SSE 22 32 12 17 1015.7 1015.0 0.0
21/01:30pm 22.5 18.0 11.3 49 6.3 SSE 26 35 14 19 1016.1 1015.4 0.0
21/01:00pm 21.1 17.1 10.3 50 5.9 SE 22 32 12 17 1016.6 1015.8 0.0
21/12:30pm 21.2 17.0 11.2 53 5.6 SSE 24 43 13 23 1016.8 1016.0 0.0
21/12:00pm 20.8 17.2 11.7 56 5.1 SE 22 35 12 19 1017.2 1016.4 0.0
21/11:30am 20.3 16.7 12.0 59 4.7 SE 22 37 12 20 1017.4 1016.6 0.0
21/11:00am 19.0 14.9 11.6 62 4.1 SE 24 37 13 20 1017.6 1016.9 0.0
21/10:30am 18.1 13.2 11.4 65 3.7 SE 28 43 15 23 1018.0 1017.3 0.0
21/10:00am 16.8 11.7 10.6 67 3.3 SSE 28 43 15 23 1018.0 1017.3 0.0

Other Formats:

Comma delimited format used in spreadsheet applications
http://www.bom.gov.au/fwo/IDN60801/IDN60801.95734.axf

JavaScript Object Notation format (JSON) in row-major order
http://www.bom.gov.au/fwo/IDN60801/IDN60801.95734.json